Time;durP1;ratioP1;P1;durP2;ratioP2;P2;SDS_P1;SDS_P2;PMS_P1;PMS_P2;Temp;Humidity;BMP_temperature;BMP_pressure;BME280_temperature;BME280_humidity;BME280_pressure;Samples;Min_cycle;Max_cycle;Signal;HPM_P1;HPM_P2
2024/02/21 00:01:31;;;;;;;1999.90;999.90;;;;;;;;;;6184612;23;20027;-81
2024/02/21 00:03:58;;;;;;;1999.90;999.90;;;;;;;;;;6184398;23;20021;-81
2024/02/21 00:06:25;;;;;;;1999.90;999.90;;;;;;;;;;6184840;23;20017;-81
2024/02/21 00:08:52;;;;;;;1999.90;999.90;;;;;;;;;;6184472;23;20025;-81
2024/02/21 00:11:20;;;;;;;1999.90;999.90;;;;;;;;;;6184391;23;20043;-81
2024/02/21 00:13:46;;;;;;;1999.90;999.90;;;;;;;;;;6184379;23;20033;-82
2024/02/21 00:16:15;;;;;;;1999.90;999.90;;;;;;;;;;6184513;23;20643;-81
2024/02/21 00:18:41;;;;;;;1999.90;999.90;;;;;;;;;;6184472;23;20017;-82
2024/02/21 00:21:08;;;;;;;1999.90;999.90;;;;;;;;;;6184910;23;20021;-81
2024/02/21 00:23:34;;;;;;;1999.90;999.90;;;;;;;;;;6184473;23;20017;-81
2024/02/21 00:26:01;;;;;;;1999.90;999.90;;;;;;;;;;6184185;23;20490;-84
2024/02/21 00:28:29;;;;;;;1999.90;999.90;;;;;;;;;;6184640;23;20431;-81
2024/02/21 00:30:55;;;;;;;1999.90;999.90;;;;;;;;;;6184430;23;20021;-83
2024/02/21 00:33:22;;;;;;;1999.90;999.90;;;;;;;;;;6184565;23;20021;-81
2024/02/21 00:35:48;;;;;;;1999.90;999.90;;;;;;;;;;6184371;23;20099;-81
2024/02/21 00:38:15;;;;;;;1999.90;999.90;;;;;;;;;;6184338;23;20457;-81
2024/02/21 00:40:41;;;;;;;1999.90;999.90;;;;;;;;;;6184327;23;20017;-81
2024/02/21 00:43:08;;;;;;;1999.90;999.90;;;;;;;;;;6184088;23;20025;-81
2024/02/21 00:45:35;;;;;;;1999.90;999.90;;;;;;;;;;6184350;23;20096;-82
2024/02/21 00:48:02;;;;;;;1999.90;999.90;;;;;;;;;;6183949;23;20017;-81
2024/02/21 00:50:28;;;;;;;1999.90;999.90;;;;;;;;;;6183968;23;20440;-81
2024/02/21 00:52:55;;;;;;;1999.90;999.90;;;;;;;;;;6184056;23;20020;-81
2024/02/21 00:55:21;;;;;;;1999.90;999.90;;;;;;;;;;6184050;23;20023;-82
2024/02/21 00:57:48;;;;;;;1999.90;999.90;;;;;;;;;;6183753;23;20022;-83
2024/02/21 01:00:15;;;;;;;1999.90;999.90;;;;;;;;;;6184109;23;20017;-82
2024/02/21 01:02:43;;;;;;;1999.90;999.90;;;;;;;;;;6183943;23;20025;-81
2024/02/21 01:05:09;;;;;;;1999.90;999.90;;;;;;;;;;6184017;23;20021;-81
2024/02/21 01:07:36;;;;;;;1999.90;999.90;;;;;;;;;;6183821;23;20104;-82
2024/02/21 01:10:02;;;;;;;1999.90;999.90;;;;;;;;;;6184036;23;20686;-81
2024/02/21 01:12:29;;;;;;;1999.90;999.90;;;;;;;;;;6183562;23;20025;-81
2024/02/21 01:14:55;;;;;;;1999.90;999.90;;;;;;;;;;6183749;23;20035;-81
2024/02/21 01:17:22;;;;;;;1999.90;999.90;;;;;;;;;;6183616;23;20447;-82
2024/02/21 01:19:50;;;;;;;1999.90;999.90;;;;;;;;;;6185436;23;20028;-84
2024/02/21 01:22:17;;;;;;;1999.90;999.90;;;;;;;;;;6186463;23;20037;-84
2024/02/21 01:24:44;;;;;;;1999.90;999.90;;;;;;;;;;6187322;23;20021;-82
2024/02/21 01:27:10;;;;;;;1999.90;999.90;;;;;;;;;;6184465;23;20351;-83
2024/02/21 01:29:37;;;;;;;1999.90;999.90;;;;;;;;;;6184334;23;20107;-83
2024/02/21 01:32:03;;;;;;;1999.90;999.90;;;;;;;;;;6183885;23;20028;-81
2024/02/21 01:34:30;;;;;;;1999.90;999.90;;;;;;;;;;6184220;23;20039;-83
2024/02/21 01:36:59;;;;;;;1999.90;999.90;;;;;;;;;;6183828;23;20177;-82
2024/02/21 01:39:25;;;;;;;1999.90;999.90;;;;;;;;;;6183582;23;20021;-81
2024/02/21 01:41:52;;;;;;;1999.90;999.90;;;;;;;;;;6184049;23;20027;-81
2024/02/21 01:44:18;;;;;;;1999.90;999.90;;;;;;;;;;6183918;23;20039;-81
2024/02/21 01:46:45;;;;;;;1999.90;999.90;;;;;;;;;;6183915;23;20024;-81
2024/02/21 01:49:11;;;;;;;1999.90;999.90;;;;;;;;;;6183342;23;20025;-81
2024/02/21 01:51:38;;;;;;;1999.90;999.90;;;;;;;;;;6183412;23;20021;-82
2024/02/21 01:54:06;;;;;;;1999.90;999.90;;;;;;;;;;6183691;23;20017;-82
2024/02/21 01:56:33;;;;;;;1999.90;999.90;;;;;;;;;;6183727;23;20017;-81
2024/02/21 01:58:59;;;;;;;1999.90;999.90;;;;;;;;;;6183633;23;20020;-81
2024/02/21 02:01:26;;;;;;;1999.90;999.90;;;;;;;;;;6183550;23;20043;-81
2024/02/21 02:03:53;;;;;;;1999.90;999.90;;;;;;;;;;6183282;23;20099;-82
2024/02/21 02:06:19;;;;;;;1999.90;999.90;;;;;;;;;;6183223;23;20017;-81
2024/02/21 02:08:46;;;;;;;1999.90;999.90;;;;;;;;;;6183501;23;20028;-81
2024/02/21 02:11:15;;;;;;;1999.90;999.90;;;;;;;;;;6183507;23;20017;-82
2024/02/21 02:13:42;;;;;;;1999.90;999.90;;;;;;;;;;6183457;23;20021;-84
2024/02/21 02:16:08;;;;;;;1999.90;999.90;;;;;;;;;;6183872;23;20039;-82
2024/02/21 02:18:35;;;;;;;1999.90;999.90;;;;;;;;;;6183910;23;20069;-81
2024/02/21 02:21:01;;;;;;;1999.90;999.90;;;;;;;;;;6183146;23;20436;-81
2024/02/21 02:23:31;;;;;;;1999.90;999.90;;;;;;;;;;6182675;23;20109;-82
2024/02/21 02:25:58;;;;;;;1999.90;999.90;;;;;;;;;;6183537;23;20029;-81
2024/02/21 02:28:25;;;;;;;1999.90;999.90;;;;;;;;;;6183783;23;20021;-81
2024/02/21 02:30:51;;;;;;;1999.90;999.90;;;;;;;;;;6183388;23;20032;-82
2024/02/21 02:33:18;;;;;;;1999.90;999.90;;;;;;;;;;6183553;23;20025;-84
2024/02/21 02:35:45;;;;;;;1999.90;999.90;;;;;;;;;;6183604;23;20343;-82
2024/02/21 02:38:13;;;;;;;1999.90;999.90;;;;;;;;;;6183432;23;20043;-81
2024/02/21 02:40:42;;;;;;;1999.90;999.90;;;;;;;;;;6183194;23;20025;-81
2024/02/21 02:43:08;;;;;;;1999.90;999.90;;;;;;;;;;6183242;23;20021;-81
2024/02/21 02:45:35;;;;;;;1999.90;999.90;;;;;;;;;;6182948;23;20031;-83
2024/02/21 02:48:01;;;;;;;1999.90;999.90;;;;;;;;;;6182122;23;20355;-82
2024/02/21 02:50:28;;;;;;;1999.90;999.90;;;;;;;;;;6182746;23;20021;-81
2024/02/21 02:52:55;;;;;;;1999.90;999.90;;;;;;;;;;6182899;23;20025;-84
2024/02/21 02:55:22;;;;;;;1999.90;999.90;;;;;;;;;;6183090;23;20021;-82
2024/02/21 02:57:49;;;;;;;1999.90;999.90;;;;;;;;;;6183315;23;20021;-82
2024/02/21 03:00:16;;;;;;;1999.90;999.90;;;;;;;;;;6183443;23;20021;-82
2024/02/21 03:02:44;;;;;;;1999.90;999.90;;;;;;;;;;6183623;23;20021;-82
2024/02/21 03:05:15;;;;;;;1999.90;999.90;;;;;;;;;;6182991;23;20068;-82
2024/02/21 03:07:42;;;;;;;1999.90;999.90;;;;;;;;;;6182642;23;20025;-82
2024/02/21 03:10:09;;;;;;;1999.90;999.90;;;;;;;;;;6182674;23;20313;-83
2024/02/21 03:12:36;;;;;;;1999.90;999.90;;;;;;;;;;6182658;23;20025;-84
2024/02/21 03:15:05;;;;;;;1999.90;999.90;;;;;;;;;;6183001;23;20027;-85
2024/02/21 03:17:32;;;;;;;1999.90;999.90;;;;;;;;;;6183681;23;20044;-84
2024/02/21 03:19:59;;;;;;;1999.90;999.90;;;;;;;;;;6183368;23;20309;-82
2024/02/21 03:22:26;;;;;;;1999.90;999.90;;;;;;;;;;6183016;23;20025;-85
2024/02/21 03:24:58;;;;;;;1999.90;999.90;;;;;;;;;;6183197;23;20023;-82
2024/02/21 03:27:25;;;;;;;1999.90;999.90;;;;;;;;;;6183045;23;20339;-82
2024/02/21 03:29:51;;;;;;;1999.90;999.90;;;;;;;;;;6183340;23;20017;-82
2024/02/21 03:32:19;;;;;;;1999.90;999.90;;;;;;;;;;6182745;23;20029;-84
2024/02/21 03:34:46;;;;;;;1999.90;999.90;;;;;;;;;;6183908;23;20017;-82
2024/02/21 03:37:13;;;;;;;1999.90;999.90;;;;;;;;;;6185357;23;20095;-83
2024/02/21 03:39:40;;;;;;;1999.90;999.90;;;;;;;;;;6184960;23;20021;-83
2024/02/21 03:42:07;;;;;;;1999.90;999.90;;;;;;;;;;6185196;23;20100;-84
2024/02/21 03:44:33;;;;;;;1999.90;999.90;;;;;;;;;;6184936;23;20096;-82
2024/02/21 03:47:00;;;;;;;1999.90;999.90;;;;;;;;;;6184832;23;20344;-82
2024/02/21 03:49:27;;;;;;;1999.90;999.90;;;;;;;;;;6184946;23;20025;-83
2024/02/21 03:51:54;;;;;;;1999.90;999.90;;;;;;;;;;6184889;23;20024;-82
2024/02/21 03:54:38;;;;;;;1999.90;999.90;;;;;;;;;;6184739;23;20027;-82
2024/02/21 03:57:06;;;;;;;1999.90;999.90;;;;;;;;;;6184862;23;20017;-83
2024/02/21 03:59:32;;;;;;;1999.90;999.90;;;;;;;;;;6185231;23;20396;-83
2024/02/21 04:02:00;;;;;;;1999.90;999.90;;;;;;;;;;6184484;23;20028;-81
2024/02/21 04:04:28;;;;;;;1999.90;999.90;;;;;;;;;;6184442;23;20067;-82
2024/02/21 04:06:54;;;;;;;1999.90;999.90;;;;;;;;;;6184588;23;20017;-81
2024/02/21 04:09:21;;;;;;;1999.90;999.90;;;;;;;;;;6184964;23;20021;-82
2024/02/21 04:11:47;;;;;;;1999.90;999.90;;;;;;;;;;6184515;23;20101;-81
2024/02/21 04:14:14;;;;;;;1999.90;999.90;;;;;;;;;;6184256;23;20443;-81
2024/02/21 04:16:40;;;;;;;1999.90;999.90;;;;;;;;;;6184827;23;20025;-82
2024/02/21 04:19:07;;;;;;;1999.90;999.90;;;;;;;;;;6184629;23;20017;-82
2024/02/21 04:21:35;;;;;;;1999.90;999.90;;;;;;;;;;6184598;23;20028;-82
2024/02/21 04:24:05;;;;;;;1999.90;999.90;;;;;;;;;;6185193;23;20021;-81
2024/02/21 04:26:31;;;;;;;1999.90;999.90;;;;;;;;;;6185404;23;20017;-82
2024/02/21 04:28:58;;;;;;;1999.90;999.90;;;;;;;;;;6184909;23;20028;-81
2024/02/21 04:31:24;;;;;;;1999.90;999.90;;;;;;;;;;6184850;23;20396;-81
2024/02/21 04:33:51;;;;;;;1999.90;999.90;;;;;;;;;;6184902;23;20031;-81
2024/02/21 04:36:17;;;;;;;1999.90;999.90;;;;;;;;;;6185048;23;20017;-81
2024/02/21 04:38:46;;;;;;;1999.90;999.90;;;;;;;;;;6184845;23;20018;-80
2024/02/21 04:41:12;;;;;;;1999.90;999.90;;;;;;;;;;6183410;23;20028;-81
2024/02/21 04:43:39;;;;;;;1999.90;999.90;;;;;;;;;;6183631;23;20047;-81
2024/02/21 04:46:05;;;;;;;1999.90;999.90;;;;;;;;;;6183964;23;20024;-80
2024/02/21 04:48:32;;;;;;;1999.90;999.90;;;;;;;;;;6183799;23;20027;-80
2024/02/21 04:50:58;;;;;;;1999.90;999.90;;;;;;;;;;6184256;23;20096;-81
2024/02/21 04:53:25;;;;;;;1999.90;999.90;;;;;;;;;;6184299;23;20027;-81
2024/02/21 04:55:52;;;;;;;1999.90;999.90;;;;;;;;;;6184980;23;20387;-82
2024/02/21 04:58:19;;;;;;;1999.90;999.90;;;;;;;;;;6184141;23;20021;-81
2024/02/21 05:00:45;;;;;;;1999.90;999.90;;;;;;;;;;6184150;23;20031;-81
2024/02/21 05:03:12;;;;;;;1999.90;999.90;;;;;;;;;;6183987;23;20104;-81
2024/02/21 05:05:38;;;;;;;1999.90;999.90;;;;;;;;;;6183958;23;20036;-81
2024/02/21 05:08:05;;;;;;;1999.90;999.90;;;;;;;;;;6184679;23;20021;-81
2024/02/21 05:10:32;;;;;;;1999.90;999.90;;;;;;;;;;6184701;23;20025;-80
2024/02/21 05:13:00;;;;;;;1999.90;999.90;;;;;;;;;;6184748;23;20040;-81
2024/02/21 05:15:27;;;;;;;1999.90;999.90;;;;;;;;;;6184543;23;20028;-82
2024/02/21 05:17:53;;;;;;;1999.90;999.90;;;;;;;;;;6184036;23;20544;-80
2024/02/21 05:20:20;;;;;;;1999.90;999.90;;;;;;;;;;6183776;23;20032;-83
2024/02/21 05:22:49;;;;;;;1999.90;999.90;;;;;;;;;;6183922;23;20021;-81
2024/02/21 05:25:16;;;;;;;1999.90;999.90;;;;;;;;;;6184060;23;20031;-81
2024/02/21 05:27:42;;;;;;;1999.90;999.90;;;;;;;;;;6183901;23;20096;-81
2024/02/21 05:30:11;;;;;;;1999.90;999.90;;;;;;;;;;6184211;23;20035;-81
2024/02/21 05:32:38;;;;;;;1999.90;999.90;;;;;;;;;;6184019;23;20444;-82
2024/02/21 05:35:04;;;;;;;1999.90;999.90;;;;;;;;;;6184476;23;20043;-81
2024/02/21 05:37:31;;;;;;;1999.90;999.90;;;;;;;;;;6184107;23;20025;-82
2024/02/21 05:39:57;;;;;;;1999.90;999.90;;;;;;;;;;6185215;23;20031;-84
2024/02/21 05:42:24;;;;;;;1999.90;999.90;;;;;;;;;;6187865;23;20021;-81
2024/02/21 05:44:50;;;;;;;1999.90;999.90;;;;;;;;;;6187002;23;20064;-82
2024/02/21 05:47:20;;;;;;;1999.90;999.90;;;;;;;;;;6184873;23;20096;-81
2024/02/21 05:49:47;;;;;;;1999.90;999.90;;;;;;;;;;6183165;23;20028;-84
2024/02/21 05:52:13;;;;;;;1999.90;999.90;;;;;;;;;;6183525;23;20028;-81
2024/02/21 05:54:40;;;;;;;1999.90;999.90;;;;;;;;;;6183190;23;20027;-81
2024/02/21 05:57:08;;;;;;;1999.90;999.90;;;;;;;;;;6183691;23;20021;-81
2024/02/21 05:59:36;;;;;;;1999.90;999.90;;;;;;;;;;6184029;23;20017;-81
2024/02/21 06:02:03;;;;;;;1999.90;999.90;;;;;;;;;;6183773;23;20056;-81
2024/02/21 06:04:31;;;;;;;1999.90;999.90;;;;;;;;;;6183196;23;20091;-81
2024/02/21 06:06:58;;;;;;;1999.90;999.90;;;;;;;;;;6183357;23;20448;-83
2024/02/21 06:09:24;;;;;;;1999.90;999.90;;;;;;;;;;6183986;23;20016;-82
2024/02/21 06:11:51;;;;;;;1999.90;999.90;;;;;;;;;;6183623;23;20017;-81
2024/02/21 06:14:17;;;;;;;1999.90;999.90;;;;;;;;;;6183370;23;20027;-82
2024/02/21 06:16:44;;;;;;;1999.90;999.90;;;;;;;;;;6183500;23;20021;-81
2024/02/21 06:19:10;;;;;;;1999.90;999.90;;;;;;;;;;6183179;23;20333;-81
2024/02/21 06:21:38;;;;;;;1999.90;999.90;;;;;;;;;;6183402;23;20470;-83
2024/02/21 06:24:05;;;;;;;1999.90;999.90;;;;;;;;;;6184158;23;20025;-82
2024/02/21 06:26:32;;;;;;;1999.90;999.90;;;;;;;;;;6183645;23;20111;-81
2024/02/21 06:28:59;;;;;;;1999.90;999.90;;;;;;;;;;6183350;23;20105;-83
2024/02/21 06:31:26;;;;;;;1999.90;999.90;;;;;;;;;;6183399;23;20102;-82
2024/02/21 06:33:52;;;;;;;1999.90;999.90;;;;;;;;;;6183186;23;20209;-82
2024/02/21 06:36:18;;;;;;;1999.90;999.90;;;;;;;;;;6183582;23;20021;-81
2024/02/21 06:38:46;;;;;;;1999.90;999.90;;;;;;;;;;6183242;23;20470;-83
2024/02/21 06:41:16;;;;;;;1999.90;999.90;;;;;;;;;;6183716;23;20017;-82
2024/02/21 06:43:42;;;;;;;1999.90;999.90;;;;;;;;;;6183530;23;20080;-83
2024/02/21 06:46:09;;;;;;;1999.90;999.90;;;;;;;;;;6182955;23;20482;-83
2024/02/21 06:48:35;;;;;;;1999.90;999.90;;;;;;;;;;6183052;23;20017;-82
2024/02/21 06:51:03;;;;;;;1999.90;999.90;;;;;;;;;;6183515;23;20021;-83
2024/02/21 06:53:29;;;;;;;1999.90;999.90;;;;;;;;;;6182981;23;20514;-83
2024/02/21 06:55:58;;;;;;;1999.90;999.90;;;;;;;;;;6183243;23;20021;-83
2024/02/21 06:58:24;;;;;;;1999.90;999.90;;;;;;;;;;6183107;23;20045;-83
2024/02/21 07:00:51;;;;;;;1999.90;999.90;;;;;;;;;;6182638;23;20029;-83
2024/02/21 07:03:17;;;;;;;1999.90;999.90;;;;;;;;;;6182768;23;20028;-83
2024/02/21 07:05:44;;;;;;;1999.90;999.90;;;;;;;;;;6182744;23;20023;-82
2024/02/21 07:08:10;;;;;;;1999.90;999.90;;;;;;;;;;6183229;23;20344;-83
2024/02/21 07:10:37;;;;;;;1999.90;999.90;;;;;;;;;;6184814;23;20028;-84
2024/02/21 07:13:04;;;;;;;1999.90;999.90;;;;;;;;;;6185268;23;20024;-83
2024/02/21 07:15:32;;;;;;;1999.90;999.90;;;;;;;;;;6184881;23;20415;-84
2024/02/21 07:17:58;;;;;;;1999.90;999.90;;;;;;;;;;6185348;23;20072;-85
2024/02/21 07:20:25;;;;;;;1999.90;999.90;;;;;;;;;;6185410;23;20028;-83
2024/02/21 07:22:51;;;;;;;1999.90;999.90;;;;;;;;;;6185186;23;20024;-83
2024/02/21 07:25:18;;;;;;;1999.90;999.90;;;;;;;;;;6185295;23;20361;-84
2024/02/21 07:27:45;;;;;;;1999.90;999.90;;;;;;;;;;6184945;23;20336;-83
2024/02/21 07:30:13;;;;;;;1999.90;999.90;;;;;;;;;;6184875;23;20028;-84
2024/02/21 07:32:40;;;;;;;1999.90;999.90;;;;;;;;;;6185026;23;20021;-83
2024/02/21 07:35:10;;;;;;;1999.90;999.90;;;;;;;;;;6184797;23;20099;-83
2024/02/21 07:37:37;;;;;;;1999.90;999.90;;;;;;;;;;6184795;23;20028;-84
2024/02/21 07:40:04;;;;;;;1999.90;999.90;;;;;;;;;;6185359;23;20027;-83
2024/02/21 07:42:31;;;;;;;1999.90;999.90;;;;;;;;;;6184974;23;20050;-84
2024/02/21 07:44:57;;;;;;;1999.90;999.90;;;;;;;;;;6184764;23;20326;-83
2024/02/21 07:47:25;;;;;;;1999.90;999.90;;;;;;;;;;6185373;23;20025;-83
2024/02/21 07:49:52;;;;;;;1999.90;999.90;;;;;;;;;;6185221;23;20115;-84
2024/02/21 07:52:18;;;;;;;1999.90;999.90;;;;;;;;;;6184942;23;20024;-84
2024/02/21 07:54:45;;;;;;;1999.90;999.90;;;;;;;;;;6184806;23;20017;-82
2024/02/21 07:57:11;;;;;;;1999.90;999.90;;;;;;;;;;6184513;23;20104;-83
2024/02/21 07:59:38;;;;;;;1999.90;999.90;;;;;;;;;;6185313;23;20017;-84
2024/02/21 08:02:06;;;;;;;1999.90;999.90;;;;;;;;;;6184846;23;20017;-83
2024/02/21 08:04:34;;;;;;;1999.90;999.90;;;;;;;;;;6184559;23;20352;-84
2024/02/21 08:07:03;;;;;;;1999.90;999.90;;;;;;;;;;6184498;23;20021;-84
2024/02/21 08:09:30;;;;;;;1999.90;999.90;;;;;;;;;;6184623;23;20056;-84
2024/02/21 08:11:57;;;;;;;1999.90;999.90;;;;;;;;;;6184544;23;20460;-83
2024/02/21 08:14:24;;;;;;;1999.90;999.90;;;;;;;;;;6184961;23;20022;-83
2024/02/21 08:16:51;;;;;;;1999.90;999.90;;;;;;;;;;6184532;23;20157;-84
2024/02/21 08:19:18;;;;;;;1999.90;999.90;;;;;;;;;;6185297;23;20017;-84
2024/02/21 08:21:46;;;;;;;1999.90;999.90;;;;;;;;;;6184836;23;20047;-84
2024/02/21 08:24:13;;;;;;;1999.90;999.90;;;;;;;;;;6184860;23;20104;-84
2024/02/21 08:26:41;;;;;;;1999.90;999.90;;;;;;;;;;6184949;23;20028;-84
2024/02/21 08:29:07;;;;;;;1999.90;999.90;;;;;;;;;;6185447;23;20017;-84
2024/02/21 08:31:34;;;;;;;1999.90;999.90;;;;;;;;;;6185116;23;20017;-86
2024/02/21 08:34:03;;;;;;;1999.90;999.90;;;;;;;;;;6185015;23;20017;-84
2024/02/21 08:36:30;;;;;;;1999.90;999.90;;;;;;;;;;6184597;23;20023;-84
2024/02/21 08:38:58;;;;;;;1999.90;999.90;;;;;;;;;;6184680;23;20027;-85
2024/02/21 08:41:25;;;;;;;1999.90;999.90;;;;;;;;;;6184409;23;20466;-85
2024/02/21 08:43:51;;;;;;;1999.90;999.90;;;;;;;;;;6185125;23;20104;-86
2024/02/21 08:46:18;;;;;;;1999.90;999.90;;;;;;;;;;6182808;23;20029;-84
2024/02/21 08:48:45;;;;;;;1999.90;999.90;;;;;;;;;;6183741;23;20388;-84
2024/02/21 08:51:12;;;;;;;1999.90;999.90;;;;;;;;;;6183579;23;20025;-86
2024/02/21 08:53:39;;;;;;;1999.90;999.90;;;;;;;;;;6184605;23;20070;-85
2024/02/21 08:56:08;;;;;;;1999.90;999.90;;;;;;;;;;6185771;23;20043;-85
2024/02/21 08:58:35;;;;;;;1999.90;999.90;;;;;;;;;;6185055;23;20040;-84
2024/02/21 09:01:03;;;;;;;1999.90;999.90;;;;;;;;;;6186266;23;20332;-84
2024/02/21 09:03:30;;;;;;;1999.90;999.90;;;;;;;;;;6187815;23;20096;-85
2024/02/21 09:05:56;;;;;;;1999.90;999.90;;;;;;;;;;6185854;23;20021;-85
2024/02/21 09:08:24;;;;;;;1999.90;999.90;;;;;;;;;;6186395;23;20321;-85
2024/02/21 09:10:50;;;;;;;1999.90;999.90;;;;;;;;;;6185890;23;20025;-84
2024/02/21 09:13:18;;;;;;;1999.90;999.90;;;;;;;;;;6184801;23;20073;-85
2024/02/21 09:15:45;;;;;;;1999.90;999.90;;;;;;;;;;6184584;23;20025;-88
2024/02/21 09:18:11;;;;;;;1999.90;999.90;;;;;;;;;;6184279;23;20080;-84
2024/02/21 09:20:38;;;;;;;1999.90;999.90;;;;;;;;;;6185026;23;20043;-86
2024/02/21 09:23:04;;;;;;;1999.90;999.90;;;;;;;;;;6184612;23;20100;-87
2024/02/21 09:25:31;;;;;;;1999.90;999.90;;;;;;;;;;6184086;23;20043;-86
2024/02/21 09:27:58;;;;;;;1999.90;999.90;;;;;;;;;;6184051;23;20021;-85
2024/02/21 09:30:26;;;;;;;1999.90;999.90;;;;;;;;;;6184642;23;20060;-85
2024/02/21 09:32:52;;;;;;;1999.90;999.90;;;;;;;;;;6183847;23;20021;-85
2024/02/21 09:35:19;;;;;;;1999.90;999.90;;;;;;;;;;6184668;23;20024;-85
2024/02/21 09:37:46;;;;;;;1999.90;999.90;;;;;;;;;;6184620;23;20024;-85
2024/02/21 09:40:12;;;;;;;1999.90;999.90;;;;;;;;;;6185248;23;20021;-86
2024/02/21 09:42:40;;;;;;;1999.90;999.90;;;;;;;;;;6184154;23;20025;-87
2024/02/21 09:45:10;;;;;;;1999.90;999.90;;;;;;;;;;6185021;23;20048;-85
2024/02/21 09:47:45;;;;;;;1999.90;999.90;;;;;;;;;;6184645;23;20498;-85
2024/02/21 09:50:11;;;;;;;1999.90;999.90;;;;;;;;;;6185228;23;20060;-87
2024/02/21 09:52:38;;;;;;;1999.90;999.90;;;;;;;;;;6184360;23;20726;-85
2024/02/21 09:55:08;;;;;;;1999.90;999.90;;;;;;;;;;6184523;23;20459;-86
2024/02/21 09:57:34;;;;;;;1999.90;999.90;;;;;;;;;;6184386;23;20468;-86
2024/02/21 10:00:07;;;;;;;1999.90;999.90;;;;;;;;;;6184255;23;20535;-85
2024/02/21 10:02:33;;;;;;;1999.90;999.90;;;;;;;;;;6184317;23;20332;-85
2024/02/21 10:05:03;;;;;;;1999.90;999.90;;;;;;;;;;6184164;23;20025;-85
2024/02/21 10:07:30;;;;;;;1999.90;999.90;;;;;;;;;;6184663;23;20321;-85
2024/02/21 10:10:01;;;;;;;1999.90;999.90;;;;;;;;;;6186615;23;20025;-88
2024/02/21 10:12:28;;;;;;;1999.90;999.90;;;;;;;;;;6191832;23;20069;-86
2024/02/21 10:15:01;;;;;;;1999.90;999.90;;;;;;;;;;6190981;23;20477;-87
2024/02/21 10:17:28;;;;;;;1999.90;999.90;;;;;;;;;;6189895;23;20021;-85
2024/02/21 10:19:54;;;;;;;1999.90;999.90;;;;;;;;;;6183886;23;20547;-85
2024/02/21 10:22:23;;;;;;;1999.90;999.90;;;;;;;;;;6183921;23;20021;-84
2024/02/21 10:24:49;;;;;;;1999.90;999.90;;;;;;;;;;6184428;23;20048;-85
2024/02/21 10:27:16;;;;;;;1999.90;999.90;;;;;;;;;;6184609;23;20092;-86
2024/02/21 10:29:42;;;;;;;1999.90;999.90;;;;;;;;;;6183818;23;20032;-85
2024/02/21 10:32:10;;;;;;;1999.90;999.90;;;;;;;;;;6184124;23;20024;-84
2024/02/21 10:34:37;;;;;;;1999.90;999.90;;;;;;;;;;6183927;23;20396;-88
2024/02/21 10:37:04;;;;;;;1999.90;999.90;;;;;;;;;;6183951;23;20505;-86
2024/02/21 10:39:32;;;;;;;1999.90;999.90;;;;;;;;;;6183856;23;20320;-85
2024/02/21 10:42:01;;;;;;;1999.90;999.90;;;;;;;;;;6184321;23;20021;-86
2024/02/21 10:44:30;;;;;;;1999.90;999.90;;;;;;;;;;6184089;23;20017;-84
2024/02/21 10:46:57;;;;;;;1999.90;999.90;;;;;;;;;;6184140;23;20024;-86
2024/02/21 10:49:25;;;;;;;1999.90;999.90;;;;;;;;;;6183712;23;20124;-85
2024/02/21 10:51:56;;;;;;;1999.90;999.90;;;;;;;;;;6183981;23;20072;-85
2024/02/21 10:54:35;;;;;;;1999.90;999.90;;;;;;;;;;6183866;23;20021;-84
2024/02/21 10:57:03;;;;;;;1999.90;999.90;;;;;;;;;;6183276;23;20478;-86
2024/02/21 10:59:32;;;;;;;1999.90;999.90;;;;;;;;;;6183785;23;20017;-85
2024/02/21 11:01:58;;;;;;;1999.90;999.90;;;;;;;;;;6183269;23;20017;-85
2024/02/21 11:04:26;;;;;;;1999.90;999.90;;;;;;;;;;6183282;23;20025;-84
2024/02/21 11:06:53;;;;;;;1999.90;999.90;;;;;;;;;;6183635;23;20036;-85
2024/02/21 11:09:20;;;;;;;1999.90;999.90;;;;;;;;;;6183608;23;20035;-85
2024/02/21 11:11:48;;;;;;;1999.90;999.90;;;;;;;;;;6183914;23;20021;-84
2024/02/21 11:14:19;;;;;;;1999.90;999.90;;;;;;;;;;6184118;23;20092;-86
2024/02/21 11:16:46;;;;;;;1999.90;999.90;;;;;;;;;;6183003;23;20029;-87
2024/02/21 11:19:21;;;;;;;1999.90;999.90;;;;;;;;;;6184214;23;20096;-84
2024/02/21 11:21:47;;;;;;;1999.90;999.90;;;;;;;;;;6184079;23;20415;-86
2024/02/21 11:24:14;;;;;;;1999.90;999.90;;;;;;;;;;6183561;23;20028;-86
2024/02/21 11:26:43;;;;;;;1999.90;999.90;;;;;;;;;;6183816;23;20035;-86
2024/02/21 11:29:11;;;;;;;1999.90;999.90;;;;;;;;;;6184178;23;20072;-85
2024/02/21 11:31:42;;;;;;;1999.90;999.90;;;;;;;;;;6183834;23;20095;-85
2024/02/21 11:34:11;;;;;;;1999.90;999.90;;;;;;;;;;6183614;23;20648;-86
2024/02/21 11:36:47;;;;;;;1999.90;999.90;;;;;;;;;;6183678;23;20021;-85
2024/02/21 11:39:14;;;;;;;1999.90;999.90;;;;;;;;;;6183624;23;20017;-86
2024/02/21 11:41:40;;;;;;;1999.90;999.90;;;;;;;;;;6183353;23;20021;-84
2024/02/21 11:44:07;;;;;;;1999.90;999.90;;;;;;;;;;6184045;23;20039;-88
2024/02/21 11:46:35;;;;;;;1999.90;999.90;;;;;;;;;;6183783;23;20029;-86
2024/02/21 11:49:03;;;;;;;1999.90;999.90;;;;;;;;;;6183723;23;20021;-85
2024/02/21 11:51:30;;;;;;;1999.90;999.90;;;;;;;;;;6183475;23;20079;-87
2024/02/21 11:53:57;;;;;;;1999.90;999.90;;;;;;;;;;6183589;23;20021;-85
2024/02/21 11:56:24;;;;;;;1999.90;999.90;;;;;;;;;;6183743;23;20036;-84
2024/02/21 11:58:50;;;;;;;1999.90;999.90;;;;;;;;;;6185054;23;20021;-88
2024/02/21 12:01:17;;;;;;;1999.90;999.90;;;;;;;;;;6185173;23;20017;-86
2024/02/21 12:03:49;;;;;;;1999.90;999.90;;;;;;;;;;6185155;23;20547;-84
2024/02/21 12:06:19;;;;;;;1999.90;999.90;;;;;;;;;;6185108;23;20029;-87
2024/02/21 12:08:46;;;;;;;1999.90;999.90;;;;;;;;;;6185236;23;20033;-86
2024/02/21 12:11:22;;;;;;;1999.90;999.90;;;;;;;;;;6185442;23;20021;-85
2024/02/21 12:13:48;;;;;;;;;;;;;;;;;;6185437;23;20017;-85
2024/02/21 12:16:17;;;;;;;1999.90;999.90;;;;;;;;;;6185273;23;19998;-85
2024/02/21 12:18:45;;;;;;;1999.90;999.90;;;;;;;;;;6184819;23;20096;-85
2024/02/21 12:21:12;;;;;;;1999.90;999.90;;;;;;;;;;6185036;23;20023;-86
2024/02/21 12:23:39;;;;;;;1999.90;999.90;;;;;;;;;;6184262;23;20452;-85
2024/02/21 12:26:06;;;;;;;1999.90;999.90;;;;;;;;;;6184616;23;20021;-85
2024/02/21 12:28:32;;;;;;;1999.90;999.90;;;;;;;;;;6185445;23;20021;-86
2024/02/21 12:30:59;;;;;;;1999.90;999.90;;;;;;;;;;6184960;23;20344;-84
2024/02/21 12:33:25;;;;;;;1999.90;999.90;;;;;;;;;;6184913;23;20096;-84
2024/02/21 12:35:54;;;;;;;1999.90;999.90;;;;;;;;;;6184588;23;20043;-85
2024/02/21 12:38:21;;;;;;;1999.90;999.90;;;;;;;;;;6184873;23;20024;-85
2024/02/21 12:40:47;;;;;;;1999.90;999.90;;;;;;;;;;6184671;23;20017;-84
2024/02/21 12:43:14;;;;;;;1999.90;999.90;;;;;;;;;;6184841;23;20486;-86
2024/02/21 12:45:41;;;;;;;1999.90;999.90;;;;;;;;;;6184700;23;20025;-86
2024/02/21 12:48:07;;;;;;;1999.90;999.90;;;;;;;;;;6184650;23;20017;-85
2024/02/21 12:50:34;;;;;;;1999.90;999.90;;;;;;;;;;6184962;23;20029;-87
2024/02/21 12:53:02;;;;;;;1999.90;999.90;;;;;;;;;;6184427;23;20025;-85
2024/02/21 12:55:29;;;;;;;1999.90;999.90;;;;;;;;;;6184395;23;20021;-85
2024/02/21 12:57:55;;;;;;;1999.90;999.90;;;;;;;;;;6184218;23;20025;-84
2024/02/21 13:00:26;;;;;;;1999.90;999.90;;;;;;;;;;6184834;23;20377;-84
2024/02/21 13:02:52;;;;;;;1999.90;999.90;;;;;;;;;;6184657;23;20017;-84
2024/02/21 13:05:19;;;;;;;1999.90;999.90;;;;;;;;;;6184380;23;20018;-84
2024/02/21 13:07:45;;;;;;;1999.90;999.90;;;;;;;;;;6183601;23;20380;-85
2024/02/21 13:10:14;;;;;;;1999.90;999.90;;;;;;;;;;6184717;23;20024;-85
2024/02/21 13:12:40;;;;;;;1999.90;999.90;;;;;;;;;;6184884;23;20321;-84
2024/02/21 13:15:11;;;;;;;1999.90;999.90;;;;;;;;;;6184413;23;20099;-85
2024/02/21 13:17:38;;;;;;;1999.90;999.90;;;;;;;;;;6184548;23;20116;-86
2024/02/21 13:20:05;;;;;;;1999.90;999.90;;;;;;;;;;6184031;23;20488;-87
2024/02/21 13:22:32;;;;;;;1999.90;999.90;;;;;;;;;;6184515;23;20340;-84
2024/02/21 13:24:58;;;;;;;1999.90;999.90;;;;;;;;;;6184900;23;20100;-83
2024/02/21 13:27:26;;;;;;;1999.90;999.90;;;;;;;;;;6184583;23;20025;-84
2024/02/21 13:29:53;;;;;;;1999.90;999.90;;;;;;;;;;6185893;23;20021;-84
2024/02/21 13:32:19;;;;;;;1999.90;999.90;;;;;;;;;;6185471;23;20080;-86
2024/02/21 13:34:46;;;;;;;1999.90;999.90;;;;;;;;;;6185293;23;20539;-85
2024/02/21 13:37:13;;;;;;;1999.90;999.90;;;;;;;;;;6184915;23;20021;-82
2024/02/21 13:39:40;;;;;;;1999.90;999.90;;;;;;;;;;6184288;23;20083;-83
2024/02/21 13:42:07;;;;;;;1999.90;999.90;;;;;;;;;;6184941;23;20053;-84